sensor_id;sensor_type;location;lat;lon;timestamp;temperature;humidity
19947;DHT22;10135;50.702;7.276;2024-02-28T06:00:42;8.70;64.00
19947;DHT22;10135;50.702;7.276;2024-02-28T06:02:43;8.60;63.90
19947;DHT22;10135;50.702;7.276;2024-02-28T06:04:43;8.60;63.90
19947;DHT22;10135;50.702;7.276;2024-02-28T06:06:44;8.70;64.00
19947;DHT22;10135;50.702;7.276;2024-02-28T06:08:45;8.60;63.90
19947;DHT22;10135;50.702;7.276;2024-02-28T06:10:45;8.70;64.10
19947;DHT22;10135;50.702;7.276;2024-02-28T06:12:47;8.70;64.00
19947;DHT22;10135;50.702;7.276;2024-02-28T06:14:47;8.70;64.10
19947;DHT22;10135;50.702;7.276;2024-02-28T06:16:48;8.70;64.00
19947;DHT22;10135;50.702;7.276;2024-02-28T06:18:49;8.70;64.10
19947;DHT22;10135;50.702;7.276;2024-02-28T06:20:50;8.70;64.00
19947;DHT22;10135;50.702;7.276;2024-02-28T06:22:50;8.70;64.00
19947;DHT22;10135;50.702;7.276;2024-02-28T06:24:51;8.70;64.10
19947;DHT22;10135;50.702;7.276;2024-02-28T06:26:52;8.70;63.90
19947;DHT22;10135;50.702;7.276;2024-02-28T06:28:52;8.70;63.90
19947;DHT22;10135;50.702;7.276;2024-02-28T06:30:53;8.70;63.90
19947;DHT22;10135;50.702;7.276;2024-02-28T06:32:54;8.70;64.10
19947;DHT22;10135;50.702;7.276;2024-02-28T06:34:54;8.60;63.90
19947;DHT22;10135;50.702;7.276;2024-02-28T06:36:55;8.60;63.90
19947;DHT22;10135;50.702;7.276;2024-02-28T06:38:55;8.60;63.90
19947;DHT22;10135;50.702;7.276;2024-02-28T06:40:56;8.60;63.80
19947;DHT22;10135;50.702;7.276;2024-02-28T06:42:57;8.60;63.90
19947;DHT22;10135;50.702;7.276;2024-02-28T06:44:58;8.60;63.90
19947;DHT22;10135;50.702;7.276;2024-02-28T06:46:59;8.60;63.90
19947;DHT22;10135;50.702;7.276;2024-02-28T06:49:00;8.60;63.90
19947;DHT22;10135;50.702;7.276;2024-02-28T06:51:00;8.60;63.90
19947;DHT22;10135;50.702;7.276;2024-02-28T06:53:01;8.60;63.90
19947;DHT22;10135;50.702;7.276;2024-02-28T06:55:02;8.60;63.90
19947;DHT22;10135;50.702;7.276;2024-02-28T06:57:10;8.60;63.80
19947;DHT22;10135;50.702;7.276;2024-02-28T06:59:11;8.60;63.90
19947;DHT22;10135;50.702;7.276;2024-02-28T07:01:12;8.60;63.80
19947;DHT22;10135;50.702;7.276;2024-02-28T07:03:13;8.60;63.70
19947;DHT22;10135;50.702;7.276;2024-02-28T07:05:13;8.60;63.70
19947;DHT22;10135;50.702;7.276;2024-02-28T07:07:14;8.60;63.60
19947;DHT22;10135;50.702;7.276;2024-02-28T07:09:15;8.60;63.60
19947;DHT22;10135;50.702;7.276;2024-02-28T07:11:16;8.60;63.60
19947;DHT22;10135;50.702;7.276;2024-02-28T07:13:16;8.60;63.70
19947;DHT22;10135;50.702;7.276;2024-02-28T07:15:18;8.60;63.70
19947;DHT22;10135;50.702;7.276;2024-02-28T07:17:21;8.60;63.70
19947;DHT22;10135;50.702;7.276;2024-02-28T07:19:22;8.60;63.70
19947;DHT22;10135;50.702;7.276;2024-02-28T07:21:23;8.60;63.70
19947;DHT22;10135;50.702;7.276;2024-02-28T07:23:24;8.60;63.70
19947;DHT22;10135;50.702;7.276;2024-02-28T07:25:24;8.60;63.70
19947;DHT22;10135;50.702;7.276;2024-02-28T07:27:25;8.50;63.60
19947;DHT22;10135;50.702;7.276;2024-02-28T07:29:26;8.50;63.60
19947;DHT22;10135;50.702;7.276;2024-02-28T07:31:27;8.50;63.70
19947;DHT22;10135;50.702;7.276;2024-02-28T07:33:27;8.50;63.70
19947;DHT22;10135;50.702;7.276;2024-02-28T07:35:28;8.50;63.80
19947;DHT22;10135;50.702;7.276;2024-02-28T07:37:29;8.50;63.80
19947;DHT22;10135;50.702;7.276;2024-02-28T07:39:29;8.50;63.80
19947;DHT22;10135;50.702;7.276;2024-02-28T07:41:30;8.50;63.80
19947;DHT22;10135;50.702;7.276;2024-02-28T07:43:31;8.60;63.70
19947;DHT22;10135;50.702;7.276;2024-02-28T07:45:37;8.50;63.60
19947;DHT22;10135;50.702;7.276;2024-02-28T07:47:37;8.60;63.70
19947;DHT22;10135;50.702;7.276;2024-02-28T07:49:38;8.60;63.70
19947;DHT22;10135;50.702;7.276;2024-02-28T07:51:39;8.60;63.70
19947;DHT22;10135;50.702;7.276;2024-02-28T07:53:41;8.60;63.70
19947;DHT22;10135;50.702;7.276;2024-02-28T07:55:41;8.60;63.70
19947;DHT22;10135;50.702;7.276;2024-02-28T07:57:42;8.60;63.70
19947;DHT22;10135;50.702;7.276;2024-02-28T07:59:43;8.60;63.70
19947;DHT22;10135;50.702;7.276;2024-02-28T08:01:44;8.60;63.70
19947;DHT22;10135;50.702;7.276;2024-02-28T08:03:45;8.60;63.70
19947;DHT22;10135;50.702;7.276;2024-02-28T08:05:46;8.60;63.70
19947;DHT22;10135;50.702;7.276;2024-02-28T08:07:48;8.70;63.70
19947;DHT22;10135;50.702;7.276;2024-02-28T08:09:49;8.70;63.70
19947;DHT22;10135;50.702;7.276;2024-02-28T08:11:50;8.70;63.60
19947;DHT22;10135;50.702;7.276;2024-02-28T08:13:50;8.70;63.70
19947;DHT22;10135;50.702;7.276;2024-02-28T08:15:51;8.70;63.70
19947;DHT22;10135;50.702;7.276;2024-02-28T08:17:52;8.70;63.70
19947;DHT22;10135;50.702;7.276;2024-02-28T08:19:54;8.70;63.50
19947;DHT22;10135;50.702;7.276;2024-02-28T08:21:54;8.70;63.60
19947;DHT22;10135;50.702;7.276;2024-02-28T08:23:55;8.80;63.70
19947;DHT22;10135;50.702;7.276;2024-02-28T08:25:57;8.80;63.50
19947;DHT22;10135;50.702;7.276;2024-02-28T08:27:58;8.80;63.50
19947;DHT22;10135;50.702;7.276;2024-02-28T08:29:59;8.80;63.50
19947;DHT22;10135;50.702;7.276;2024-02-28T08:31:59;8.80;63.50
19947;DHT22;10135;50.702;7.276;2024-02-28T08:34:00;8.80;63.50
19947;DHT22;10135;50.702;7.276;2024-02-28T08:36:04;8.80;63.50
19947;DHT22;10135;50.702;7.276;2024-02-28T08:38:05;8.80;63.60
19947;DHT22;10135;50.702;7.276;2024-02-28T08:40:06;8.80;63.60
19947;DHT22;10135;50.702;7.276;2024-02-28T08:42:08;8.80;63.50
19947;DHT22;10135;50.702;7.276;2024-02-28T08:44:10;8.80;63.60
19947;DHT22;10135;50.702;7.276;2024-02-28T08:46:14;8.90;63.70
19947;DHT22;10135;50.702;7.276;2024-02-28T08:48:16;8.90;63.70
19947;DHT22;10135;50.702;7.276;2024-02-28T08:50:17;8.90;63.70
19947;DHT22;10135;50.702;7.276;2024-02-28T08:52:18;8.90;63.60
19947;DHT22;10135;50.702;7.276;2024-02-28T08:54:19;8.90;63.70
19947;DHT22;10135;50.702;7.276;2024-02-28T08:56:19;9.00;63.70
19947;DHT22;10135;50.702;7.276;2024-02-28T08:58:20;9.00;63.70
19947;DHT22;10135;50.702;7.276;2024-02-28T09:00:21;9.10;63.60
19947;DHT22;10135;50.702;7.276;2024-02-28T09:02:22;9.10;63.60
19947;DHT22;10135;50.702;7.276;2024-02-28T09:04:22;9.10;63.60
19947;DHT22;10135;50.702;7.276;2024-02-28T09:06:23;9.20;63.60
19947;DHT22;10135;50.702;7.276;2024-02-28T09:08:24;9.20;63.60
19947;DHT22;10135;50.702;7.276;2024-02-28T09:10:25;9.20;63.50
19947;DHT22;10135;50.702;7.276;2024-02-28T09:12:26;9.20;63.40
19947;DHT22;10135;50.702;7.276;2024-02-28T09:14:26;9.30;63.50
19947;DHT22;10135;50.702;7.276;2024-02-28T09:16:27;9.30;63.40
19947;DHT22;10135;50.702;7.276;2024-02-28T09:18:29;9.40;63.40
19947;DHT22;10135;50.702;7.276;2024-02-28T09:20:29;9.40;63.40
19947;DHT22;10135;50.702;7.276;2024-02-28T09:22:30;9.40;63.30
19947;DHT22;10135;50.702;7.276;2024-02-28T09:24:31;9.40;63.30
19947;DHT22;10135;50.702;7.276;2024-02-28T09:26:32;9.40;63.20
19947;DHT22;10135;50.702;7.276;2024-02-28T09:28:33;9.50;63.30
19947;DHT22;10135;50.702;7.276;2024-02-28T09:30:34;9.50;63.30
19947;DHT22;10135;50.702;7.276;2024-02-28T09:32:34;9.40;63.20
19947;DHT22;10135;50.702;7.276;2024-02-28T09:34:35;9.50;63.30
19947;DHT22;10135;50.702;7.276;2024-02-28T09:36:41;9.50;63.30
19947;DHT22;10135;50.702;7.276;2024-02-28T09:38:43;9.50;63.30
19947;DHT22;10135;50.702;7.276;2024-02-28T09:40:47;9.60;63.50
19947;DHT22;10135;50.702;7.276;2024-02-28T09:43:00;9.60;63.30
19947;DHT22;10135;50.702;7.276;2024-02-28T09:45:03;9.70;63.30
19947;DHT22;10135;50.702;7.276;2024-02-28T09:47:04;9.80;63.50
19947;DHT22;10135;50.702;7.276;2024-02-28T09:49:05;9.80;63.50
19947;DHT22;10135;50.702;7.276;2024-02-28T09:51:08;9.90;63.50
19947;DHT22;10135;50.702;7.276;2024-02-28T09:53:13;10.00;63.50
19947;DHT22;10135;50.702;7.276;2024-02-28T09:55:14;10.10;63.60
19947;DHT22;10135;50.702;7.276;2024-02-28T09:57:15;10.20;63.70
19947;DHT22;10135;50.702;7.276;2024-02-28T09:59:17;10.40;63.80
19947;DHT22;10135;50.702;7.276;2024-02-28T10:01:19;10.50;63.60
19947;DHT22;10135;50.702;7.276;2024-02-28T10:03:22;10.60;63.50
19947;DHT22;10135;50.702;7.276;2024-02-28T10:05:25;10.70;63.30
19947;DHT22;10135;50.702;7.276;2024-02-28T10:07:29;10.80;63.40
19947;DHT22;10135;50.702;7.276;2024-02-28T10:09:29;10.90;63.20
19947;DHT22;10135;50.702;7.276;2024-02-28T10:11:30;10.90;63.00
19947;DHT22;10135;50.702;7.276;2024-02-28T10:13:30;11.00;63.00
19947;DHT22;10135;50.702;7.276;2024-02-28T10:15:31;11.10;62.80
19947;DHT22;10135;50.702;7.276;2024-02-28T10:17:32;11.20;62.70
19947;DHT22;10135;50.702;7.276;2024-02-28T10:19:33;11.20;62.50
19947;DHT22;10135;50.702;7.276;2024-02-28T10:21:33;11.30;62.40
19947;DHT22;10135;50.702;7.276;2024-02-28T10:23:35;11.30;62.50
19947;DHT22;10135;50.702;7.276;2024-02-28T10:25:46;11.40;62.40
19947;DHT22;10135;50.702;7.276;2024-02-28T10:27:47;11.40;61.90
19947;DHT22;10135;50.702;7.276;2024-02-28T10:29:48;11.40;62.20
19947;DHT22;10135;50.702;7.276;2024-02-28T10:31:49;11.50;62.20
19947;DHT22;10135;50.702;7.276;2024-02-28T10:33:49;11.50;62.20
19947;DHT22;10135;50.702;7.276;2024-02-28T10:35:50;11.50;62.10
19947;DHT22;10135;50.702;7.276;2024-02-28T10:37:54;11.60;62.20
19947;DHT22;10135;50.702;7.276;2024-02-28T10:39:57;11.60;62.20
19947;DHT22;10135;50.702;7.276;2024-02-28T10:42:00;11.70;62.10
19947;DHT22;10135;50.702;7.276;2024-02-28T10:44:01;11.70;62.10
19947;DHT22;10135;50.702;7.276;2024-02-28T10:46:02;11.70;62.00
19947;DHT22;10135;50.702;7.276;2024-02-28T10:48:04;11.70;61.80
19947;DHT22;10135;50.702;7.276;2024-02-28T10:50:06;11.80;61.90
19947;DHT22;10135;50.702;7.276;2024-02-28T10:52:08;11.80;61.90
19947;DHT22;10135;50.702;7.276;2024-02-28T10:54:13;11.80;61.90
19947;DHT22;10135;50.702;7.276;2024-02-28T10:56:16;11.80;61.90
19947;DHT22;10135;50.702;7.276;2024-02-28T10:58:20;11.80;61.90
19947;DHT22;10135;50.702;7.276;2024-02-28T11:00:24;11.90;61.80
19947;DHT22;10135;50.702;7.276;2024-02-28T11:02:26;11.90;61.70
19947;DHT22;10135;50.702;7.276;2024-02-28T11:04:27;11.90;61.60
19947;DHT22;10135;50.702;7.276;2024-02-28T11:06:28;11.90;61.60
19947;DHT22;10135;50.702;7.276;2024-02-28T11:08:29;11.90;61.70
19947;DHT22;10135;50.702;7.276;2024-02-28T11:10:32;11.90;61.60
19947;DHT22;10135;50.702;7.276;2024-02-28T11:12:33;12.00;62.00
19947;DHT22;10135;50.702;7.276;2024-02-28T11:14:34;12.00;61.70
19947;DHT22;10135;50.702;7.276;2024-02-28T11:16:35;12.10;61.70
19947;DHT22;10135;50.702;7.276;2024-02-28T11:18:48;12.10;61.60
19947;DHT22;10135;50.702;7.276;2024-02-28T11:20:49;12.20;61.30
19947;DHT22;10135;50.702;7.276;2024-02-28T11:22:57;12.20;61.70
19947;DHT22;10135;50.702;7.276;2024-02-28T11:24:58;12.30;61.50
19947;DHT22;10135;50.702;7.276;2024-02-28T11:26:59;12.30;61.50
19947;DHT22;10135;50.702;7.276;2024-02-28T11:28:59;12.40;61.50
19947;DHT22;10135;50.702;7.276;2024-02-28T11:31:00;12.40;61.50
19947;DHT22;10135;50.702;7.276;2024-02-28T11:33:01;12.50;61.40
19947;DHT22;10135;50.702;7.276;2024-02-28T11:35:02;12.50;61.40
19947;DHT22;10135;50.702;7.276;2024-02-28T11:37:03;12.50;61.30
19947;DHT22;10135;50.702;7.276;2024-02-28T11:39:06;12.60;61.20
19947;DHT22;10135;50.702;7.276;2024-02-28T11:41:07;12.60;61.00
19947;DHT22;10135;50.702;7.276;2024-02-28T11:43:08;12.70;61.10
19947;DHT22;10135;50.702;7.276;2024-02-28T11:45:11;12.70;60.90
19947;DHT22;10135;50.702;7.276;2024-02-28T11:47:12;12.70;60.80
19947;DHT22;10135;50.702;7.276;2024-02-28T11:49:13;12.80;60.90
19947;DHT22;10135;50.702;7.276;2024-02-28T11:51:13;12.80;60.80
19947;DHT22;10135;50.702;7.276;2024-02-28T11:53:14;12.90;60.80
19947;DHT22;10135;50.702;7.276;2024-02-28T11:55:15;13.00;60.80
19947;DHT22;10135;50.702;7.276;2024-02-28T11:57:15;13.00;60.80
19947;DHT22;10135;50.702;7.276;2024-02-28T11:59:17;13.00;60.70
19947;DHT22;10135;50.702;7.276;2024-02-28T12:01:40;13.10;60.70
19947;DHT22;10135;50.702;7.276;2024-02-28T12:03:46;13.10;60.60
19947;DHT22;10135;50.702;7.276;2024-02-28T12:05:47;13.10;60.50
19947;DHT22;10135;50.702;7.276;2024-02-28T12:07:48;13.20;60.60
19947;DHT22;10135;50.702;7.276;2024-02-28T12:09:48;13.30;60.50
19947;DHT22;10135;50.702;7.276;2024-02-28T12:11:49;13.30;60.40
19947;DHT22;10135;50.702;7.276;2024-02-28T12:13:53;13.40;60.30
19947;DHT22;10135;50.702;7.276;2024-02-28T12:15:55;13.40;60.10
19947;DHT22;10135;50.702;7.276;2024-02-28T12:17:56;13.50;60.30
19947;DHT22;10135;50.702;7.276;2024-02-28T12:20:01;13.50;60.30
19947;DHT22;10135;50.702;7.276;2024-02-28T12:22:02;13.60;60.10
19947;DHT22;10135;50.702;7.276;2024-02-28T12:24:03;13.60;60.10
19947;DHT22;10135;50.702;7.276;2024-02-28T12:26:05;13.60;60.70
19947;DHT22;10135;50.702;7.276;2024-02-28T12:28:06;13.60;59.90
19947;DHT22;10135;50.702;7.276;2024-02-28T12:30:07;13.70;59.90
19947;DHT22;10135;50.702;7.276;2024-02-28T12:32:09;13.70;59.90
19947;DHT22;10135;50.702;7.276;2024-02-28T12:34:10;13.70;59.80
19947;DHT22;10135;50.702;7.276;2024-02-28T12:36:10;13.80;59.80
19947;DHT22;10135;50.702;7.276;2024-02-28T12:38:11;13.80;59.70
19947;DHT22;10135;50.702;7.276;2024-02-28T12:40:12;13.80;59.70
19947;DHT22;10135;50.702;7.276;2024-02-28T12:42:14;13.80;59.70
19947;DHT22;10135;50.702;7.276;2024-02-28T12:44:15;13.90;59.70
19947;DHT22;10135;50.702;7.276;2024-02-28T12:46:16;13.90;59.70
19947;DHT22;10135;50.702;7.276;2024-02-28T12:48:16;13.90;59.70
19947;DHT22;10135;50.702;7.276;2024-02-28T12:50:17;14.00;59.60
19947;DHT22;10135;50.702;7.276;2024-02-28T12:52:18;14.00;59.50
19947;DHT22;10135;50.702;7.276;2024-02-28T12:54:19;14.00;59.50
19947;DHT22;10135;50.702;7.276;2024-02-28T12:56:21;14.00;59.50
19947;DHT22;10135;50.702;7.276;2024-02-28T12:58:21;14.00;59.40
19947;DHT22;10135;50.702;7.276;2024-02-28T13:00:23;14.00;59.30
19947;DHT22;10135;50.702;7.276;2024-02-28T13:02:24;14.10;59.50
19947;DHT22;10135;50.702;7.276;2024-02-28T13:04:25;14.10;59.40
19947;DHT22;10135;50.702;7.276;2024-02-28T13:06:26;14.10;59.30
19947;DHT22;10135;50.702;7.276;2024-02-28T13:08:27;14.10;59.30
19947;DHT22;10135;50.702;7.276;2024-02-28T13:10:28;14.10;59.30
19947;DHT22;10135;50.702;7.276;2024-02-28T13:12:29;14.20;59.30
19947;DHT22;10135;50.702;7.276;2024-02-28T13:14:29;14.20;59.30
19947;DHT22;10135;50.702;7.276;2024-02-28T13:16:30;14.20;59.20
19947;DHT22;10135;50.702;7.276;2024-02-28T13:18:31;14.20;59.10
19947;DHT22;10135;50.702;7.276;2024-02-28T13:20:31;14.20;59.10
19947;DHT22;10135;50.702;7.276;2024-02-28T13:22:32;14.20;59.10
19947;DHT22;10135;50.702;7.276;2024-02-28T13:24:32;14.20;59.10
19947;DHT22;10135;50.702;7.276;2024-02-28T13:26:33;14.20;59.00
19947;DHT22;10135;50.702;7.276;2024-02-28T13:28:35;14.30;59.00
19947;DHT22;10135;50.702;7.276;2024-02-28T13:30:36;14.30;59.00
19947;DHT22;10135;50.702;7.276;2024-02-28T13:32:37;14.20;58.90
19947;DHT22;10135;50.702;7.276;2024-02-28T13:34:38;14.30;58.80
19947;DHT22;10135;50.702;7.276;2024-02-28T13:36:40;14.30;58.80
19947;DHT22;10135;50.702;7.276;2024-02-28T13:38:43;14.30;58.80
19947;DHT22;10135;50.702;7.276;2024-02-28T13:40:45;14.30;58.80
19947;DHT22;10135;50.702;7.276;2024-02-28T13:42:46;14.30;58.70
19947;DHT22;10135;50.702;7.276;2024-02-28T13:44:47;14.30;58.60
19947;DHT22;10135;50.702;7.276;2024-02-28T13:46:49;14.30;58.50
19947;DHT22;10135;50.702;7.276;2024-02-28T13:48:52;14.30;58.40
19947;DHT22;10135;50.702;7.276;2024-02-28T13:50:52;14.40;58.50
19947;DHT22;10135;50.702;7.276;2024-02-28T13:52:53;14.40;58.50
19947;DHT22;10135;50.702;7.276;2024-02-28T13:54:54;14.40;58.50
19947;DHT22;10135;50.702;7.276;2024-02-28T13:56:55;14.50;58.40
19947;DHT22;10135;50.702;7.276;2024-02-28T13:58:55;14.50;58.40
19947;DHT22;10135;50.702;7.276;2024-02-28T14:00:56;14.50;58.30
19947;DHT22;10135;50.702;7.276;2024-02-28T14:02:57;14.50;58.20
19947;DHT22;10135;50.702;7.276;2024-02-28T14:04:58;14.50;58.00
19947;DHT22;10135;50.702;7.276;2024-02-28T14:06:59;14.60;57.90
19947;DHT22;10135;50.702;7.276;2024-02-28T14:08:59;14.60;57.80
19947;DHT22;10135;50.702;7.276;2024-02-28T14:11:00;14.50;57.80
19947;DHT22;10135;50.702;7.276;2024-02-28T14:13:01;14.60;57.80
19947;DHT22;10135;50.702;7.276;2024-02-28T14:15:02;14.60;57.70
19947;DHT22;10135;50.702;7.276;2024-02-28T14:17:03;14.60;57.70
19947;DHT22;10135;50.702;7.276;2024-02-28T14:19:03;14.60;57.60
19947;DHT22;10135;50.702;7.276;2024-02-28T14:21:04;14.60;57.50
19947;DHT22;10135;50.702;7.276;2024-02-28T14:23:05;14.60;57.30
19947;DHT22;10135;50.702;7.276;2024-02-28T14:25:06;14.60;57.80
19947;DHT22;10135;50.702;7.276;2024-02-28T14:27:06;14.60;57.00
19947;DHT22;10135;50.702;7.276;2024-02-28T14:29:07;14.60;57.10
19947;DHT22;10135;50.702;7.276;2024-02-28T14:31:08;14.60;57.20
19947;DHT22;10135;50.702;7.276;2024-02-28T14:33:08;14.60;57.10
19947;DHT22;10135;50.702;7.276;2024-02-28T14:35:09;14.60;57.20
19947;DHT22;10135;50.702;7.276;2024-02-28T14:37:11;14.60;57.10
19947;DHT22;10135;50.702;7.276;2024-02-28T14:39:11;14.60;57.10
19947;DHT22;10135;50.702;7.276;2024-02-28T14:41:15;14.60;57.00
19947;DHT22;10135;50.702;7.276;2024-02-28T14:43:16;14.60;57.00
19947;DHT22;10135;50.702;7.276;2024-02-28T14:45:16;14.60;56.90
19947;DHT22;10135;50.702;7.276;2024-02-28T14:47:17;14.60;56.90
19947;DHT22;10135;50.702;7.276;2024-02-28T14:49:18;14.60;56.90
19947;DHT22;10135;50.702;7.276;2024-02-28T14:51:18;14.60;56.90
19947;DHT22;10135;50.702;7.276;2024-02-28T14:53:20;14.60;56.80
19947;DHT22;10135;50.702;7.276;2024-02-28T14:55:21;14.60;56.70
19947;DHT22;10135;50.702;7.276;2024-02-28T14:57:23;14.70;56.70
19947;DHT22;10135;50.702;7.276;2024-02-28T14:59:23;14.70;56.70
19947;DHT22;10135;50.702;7.276;2024-02-28T15:01:24;14.60;56.70
19947;DHT22;10135;50.702;7.276;2024-02-28T15:03:25;14.60;56.80
19947;DHT22;10135;50.702;7.276;2024-02-28T15:05:25;14.60;56.80
19947;DHT22;10135;50.702;7.276;2024-02-28T15:07:26;14.60;56.80
19947;DHT22;10135;50.702;7.276;2024-02-28T15:09:27;14.60;56.80
19947;DHT22;10135;50.702;7.276;2024-02-28T15:11:27;14.50;57.40
19947;DHT22;10135;50.702;7.276;2024-02-28T15:13:28;14.50;56.80
19947;DHT22;10135;50.702;7.276;2024-02-28T15:15:32;14.50;56.90
19947;DHT22;10135;50.702;7.276;2024-02-28T15:17:33;14.50;56.70
19947;DHT22;10135;50.702;7.276;2024-02-28T15:19:34;14.50;56.80
19947;DHT22;10135;50.702;7.276;2024-02-28T15:21:34;14.40;56.80
19947;DHT22;10135;50.702;7.276;2024-02-28T15:23:35;14.40;56.90
19947;DHT22;10135;50.702;7.276;2024-02-28T15:25:36;14.40;56.80
19947;DHT22;10135;50.702;7.276;2024-02-28T15:27:37;14.30;56.80
19947;DHT22;10135;50.702;7.276;2024-02-28T15:29:37;14.30;56.80
19947;DHT22;10135;50.702;7.276;2024-02-28T15:31:38;14.30;56.80
19947;DHT22;10135;50.702;7.276;2024-02-28T15:33:39;14.30;56.80
19947;DHT22;10135;50.702;7.276;2024-02-28T15:35:39;14.30;56.90
19947;DHT22;10135;50.702;7.276;2024-02-28T15:37:40;14.20;56.80
19947;DHT22;10135;50.702;7.276;2024-02-28T15:39:41;14.20;56.80
19947;DHT22;10135;50.702;7.276;2024-02-28T15:41:41;14.20;56.80
19947;DHT22;10135;50.702;7.276;2024-02-28T15:43:42;14.20;56.80
19947;DHT22;10135;50.702;7.276;2024-02-28T15:45:43;14.10;56.80
19947;DHT22;10135;50.702;7.276;2024-02-28T15:47:44;14.10;56.70
19947;DHT22;10135;50.702;7.276;2024-02-28T15:49:45;14.10;56.70
19947;DHT22;10135;50.702;7.276;2024-02-28T15:51:46;14.10;56.70
19947;DHT22;10135;50.702;7.276;2024-02-28T15:53:46;14.10;56.70
19947;DHT22;10135;50.702;7.276;2024-02-28T15:55:49;14.00;56.60
19947;DHT22;10135;50.702;7.276;2024-02-28T15:57:50;14.00;56.60
19947;DHT22;10135;50.702;7.276;2024-02-28T15:59:51;14.00;56.60
19947;DHT22;10135;50.702;7.276;2024-02-28T16:01:51;14.00;56.60
19947;DHT22;10135;50.702;7.276;2024-02-28T16:03:52;14.00;56.50
19947;DHT22;10135;50.702;7.276;2024-02-28T16:05:53;14.00;56.50
19947;DHT22;10135;50.702;7.276;2024-02-28T16:07:54;13.90;56.50
19947;DHT22;10135;50.702;7.276;2024-02-28T16:09:56;13.90;56.50
19947;DHT22;10135;50.702;7.276;2024-02-28T16:11:57;13.90;56.50
19947;DHT22;10135;50.702;7.276;2024-02-28T16:13:57;13.90;56.50
19947;DHT22;10135;50.702;7.276;2024-02-28T16:15:58;13.80;56.40
19947;DHT22;10135;50.702;7.276;2024-02-28T16:17:59;13.80;56.40
19947;DHT22;10135;50.702;7.276;2024-02-28T16:19:59;13.80;56.40
19947;DHT22;10135;50.702;7.276;2024-02-28T16:22:02;13.70;56.70
19947;DHT22;10135;50.702;7.276;2024-02-28T16:24:03;13.70;56.40
19947;DHT22;10135;50.702;7.276;2024-02-28T16:26:04;13.70;56.40
19947;DHT22;10135;50.702;7.276;2024-02-28T16:28:05;13.70;56.50
19947;DHT22;10135;50.702;7.276;2024-02-28T16:30:06;13.60;56.40
19947;DHT22;10135;50.702;7.276;2024-02-28T16:32:08;13.60;57.00
19947;DHT22;10135;50.702;7.276;2024-02-28T16:34:09;13.60;56.40
19947;DHT22;10135;50.702;7.276;2024-02-28T16:36:09;13.60;56.50
19947;DHT22;10135;50.702;7.276;2024-02-28T16:38:11;13.50;56.40
19947;DHT22;10135;50.702;7.276;2024-02-28T16:40:12;13.50;56.50
19947;DHT22;10135;50.702;7.276;2024-02-28T16:42:12;13.50;56.40
19947;DHT22;10135;50.702;7.276;2024-02-28T16:44:13;13.40;56.40
19947;DHT22;10135;50.702;7.276;2024-02-28T16:46:14;13.40;56.40
19947;DHT22;10135;50.702;7.276;2024-02-28T16:48:14;13.30;56.40
19947;DHT22;10135;50.702;7.276;2024-02-28T16:50:15;13.30;56.30
19947;DHT22;10135;50.702;7.276;2024-02-28T16:52:16;13.30;56.40
19947;DHT22;10135;50.702;7.276;2024-02-28T16:54:17;13.30;56.40
19947;DHT22;10135;50.702;7.276;2024-02-28T16:56:19;13.20;56.40
19947;DHT22;10135;50.702;7.276;2024-02-28T16:58:20;13.20;56.40
19947;DHT22;10135;50.702;7.276;2024-02-28T17:00:21;13.10;56.40
19947;DHT22;10135;50.702;7.276;2024-02-28T17:02:21;13.10;56.40
19947;DHT22;10135;50.702;7.276;2024-02-28T17:04:22;13.10;56.40
19947;DHT22;10135;50.702;7.276;2024-02-28T17:06:23;13.00;56.40
19947;DHT22;10135;50.702;7.276;2024-02-28T17:08:23;13.00;56.40
19947;DHT22;10135;50.702;7.276;2024-02-28T17:10:24;13.00;56.40
19947;DHT22;10135;50.702;7.276;2024-02-28T17:12:26;12.90;56.40
19947;DHT22;10135;50.702;7.276;2024-02-28T17:14:28;12.90;56.50
19947;DHT22;10135;50.702;7.276;2024-02-28T17:16:28;12.80;56.40
19947;DHT22;10135;50.702;7.276;2024-02-28T17:18:30;12.80;56.40
19947;DHT22;10135;50.702;7.276;2024-02-28T17:20:33;12.80;56.40
19947;DHT22;10135;50.702;7.276;2024-02-28T17:22:34;12.80;56.40
19947;DHT22;10135;50.702;7.276;2024-02-28T17:24:35;12.80;56.40
19947;DHT22;10135;50.702;7.276;2024-02-28T17:26:35;12.80;56.40
19947;DHT22;10135;50.702;7.276;2024-02-28T17:28:36;12.70;56.40
19947;DHT22;10135;50.702;7.276;2024-02-28T17:30:37;12.70;56.40
19947;DHT22;10135;50.702;7.276;2024-02-28T17:32:37;12.70;56.40
19947;DHT22;10135;50.702;7.276;2024-02-28T17:34:38;12.70;56.40
19947;DHT22;10135;50.702;7.276;2024-02-28T17:36:41;12.70;56.40
19947;DHT22;10135;50.702;7.276;2024-02-28T17:38:42;12.60;56.40
19947;DHT22;10135;50.702;7.276;2024-02-28T17:40:44;12.60;56.40
19947;DHT22;10135;50.702;7.276;2024-02-28T17:42:45;12.60;56.50
19947;DHT22;10135;50.702;7.276;2024-02-28T17:44:46;12.50;56.40
19947;DHT22;10135;50.702;7.276;2024-02-28T17:46:46;12.50;56.40
19947;DHT22;10135;50.702;7.276;2024-02-28T17:48:47;12.50;56.40
19947;DHT22;10135;50.702;7.276;2024-02-28T17:50:48;12.50;56.50
19947;DHT22;10135;50.702;7.276;2024-02-28T17:52:50;12.50;56.50
19947;DHT22;10135;50.702;7.276;2024-02-28T17:54:50;12.50;56.50
19947;DHT22;10135;50.702;7.276;2024-02-28T17:56:51;12.40;56.40
19947;DHT22;10135;50.702;7.276;2024-02-28T17:58:52;12.40;56.50
19947;DHT22;10135;50.702;7.276;2024-02-28T18:00:52;12.40;56.40
19947;DHT22;10135;50.702;7.276;2024-02-28T18:02:56;12.40;56.40
19947;DHT22;10135;50.702;7.276;2024-02-28T18:04:57;12.40;56.50
19947;DHT22;10135;50.702;7.276;2024-02-28T18:06:58;12.40;56.50
19947;DHT22;10135;50.702;7.276;2024-02-28T18:08:58;12.30;56.50
19947;DHT22;10135;50.702;7.276;2024-02-28T18:10:59;12.30;56.50
19947;DHT22;10135;50.702;7.276;2024-02-28T18:13:00;12.30;56.50
19947;DHT22;10135;50.702;7.276;2024-02-28T18:15:01;12.30;56.50
19947;DHT22;10135;50.702;7.276;2024-02-28T18:17:02;12.20;56.50
19947;DHT22;10135;50.702;7.276;2024-02-28T18:19:04;12.30;56.50
19947;DHT22;10135;50.702;7.276;2024-02-28T18:21:05;12.20;56.50
19947;DHT22;10135;50.702;7.276;2024-02-28T18:23:05;12.20;56.50
19947;DHT22;10135;50.702;7.276;2024-02-28T18:25:06;12.20;56.50
19947;DHT22;10135;50.702;7.276;2024-02-28T18:27:08;12.20;56.50
19947;DHT22;10135;50.702;7.276;2024-02-28T18:29:11;12.20;56.50
19947;DHT22;10135;50.702;7.276;2024-02-28T18:31:12;12.20;56.60
19947;DHT22;10135;50.702;7.276;2024-02-28T18:33:13;12.20;56.60
19947;DHT22;10135;50.702;7.276;2024-02-28T18:35:13;12.10;56.50
19947;DHT22;10135;50.702;7.276;2024-02-28T18:37:15;12.10;56.50
19947;DHT22;10135;50.702;7.276;2024-02-28T18:39:16;12.10;56.50
19947;DHT22;10135;50.702;7.276;2024-02-28T18:41:16;12.10;57.10
19947;DHT22;10135;50.702;7.276;2024-02-28T18:43:17;12.10;56.50
19947;DHT22;10135;50.702;7.276;2024-02-28T18:45:18;12.10;56.50
19947;DHT22;10135;50.702;7.276;2024-02-28T18:47:19;12.00;56.50
19947;DHT22;10135;50.702;7.276;2024-02-28T18:49:19;12.00;56.50